Pontiac, IL

4:41 AM CST on December 12, 2017 (GMT -0600)
Pontiac Municipal

Weather History for KPNT - May, 2014

Change the Weather History Date:

Saturday, May 3, 2014

  Actual Average Record
Temperature  
Mean Temperature 58 °F -  
Max Temperature 71 °F 68 °F 91 °F (1928)
Min Temperature 46 °F 45 °F 26 °F (2005)
Degree Days  
Heating Degree Days 6    
Growing Degree Days 8 (Base 50)    
Moisture  
Dew Point 39 °F    
Average Humidity 51    
Maximum Humidity 87    
Minimum Humidity 25    
Precipitation  
Precipitation 0.00 in - - ()
Sea Level Pressure  
Sea Level Pressure 29.82 in    
Wind  
Wind Speed 14 mph (West)    
Max Wind Speed 23 mph    
Max Gust Speed 31 mph    
Visibility 10 miles    
Events      
Averages and records for this station are not official NWS values.
T = Trace of Precipitation, MM = Missing Value Source: NWS Daily Summary

Daily Weather History Graph

Daily Weather History Graph

Search for Another Location

Airport or City:

Trip Planner

Search our weather history database for the weather conditions in past years. The results will help you decide how hot, cold, wet, or windy it might be!

Date:

Astronomy

May. 03, 2014 Rise Set
Actual Time 5:50 AM CDT 7:53 PM CDT
Civil Twilight 5:20 AM CDT 8:23 PM CDT
Nautical Twilight 4:43 AM CDT 9:00 PM CDT
Astronomical Twilight 4:03 AM CDT 9:40 PM CDT
Moon 9:19 AM CDT (5/3) 11:59 PM CDT (5/3)
Length of Visible Light 15h 03m
Length of Day
14h 03m
Waxing Crescent, 20% of the Moon is Illuminated
May 3
Waxing Crescent
May 6
First Quarter
May 14
Full
May 21
Last Quarter
May 28
New

Hourly Weather History & Observations

Time (CDT) Temp. Windchill Dew Point Humidity Pressure Visibility Wind Dir Wind Speed Gust Speed Precip Events Conditions
12:15 AM 53.6 °F - 42.8 °F 67% 29.71 in 10.0 mi SSW 16.1 mph - N/A   Mostly Cloudy
12:35 AM 53.6 °F - 42.8 °F 67% 29.72 in 10.0 mi SW 15.0 mph 23.0 mph N/A   Mostly Cloudy
12:55 AM 51.8 °F - 42.8 °F 71% 29.74 in 10.0 mi West 10.4 mph - N/A   Mostly Cloudy
1:15 AM 51.8 °F - 42.8 °F 71% 29.73 in 10.0 mi WSW 15.0 mph - N/A   Scattered Clouds
1:35 AM 51.8 °F - 42.8 °F 71% 29.73 in 10.0 mi WSW 10.4 mph - N/A   Clear
1:55 AM 51.8 °F - 42.8 °F 71% 29.73 in 10.0 mi WSW 12.7 mph - N/A   Scattered Clouds
2:15 AM 50.0 °F - 42.8 °F 76% 29.72 in 10.0 mi WSW 12.7 mph - N/A   Clear
2:35 AM 48.2 °F - 42.8 °F 82% 29.72 in 10.0 mi WSW 10.4 mph - N/A   Clear
2:55 AM 48.2 °F - 42.8 °F 82% 29.72 in 10.0 mi WSW 9.2 mph - N/A   Clear
3:15 AM 48.2 °F - 42.8 °F 82% 29.72 in 10.0 mi WSW 8.1 mph - N/A   Clear
3:35 AM 48.2 °F - 42.8 °F 82% 29.72 in 10.0 mi SW 9.2 mph - N/A   Clear
3:55 AM 48.2 °F - 42.8 °F 82% 29.73 in 10.0 mi WSW 10.4 mph - N/A   Clear
4:15 AM 48.2 °F - 42.8 °F 82% 29.73 in 10.0 mi WSW 11.5 mph - N/A   Clear
4:35 AM 48.2 °F - 42.8 °F 82% 29.73 in 10.0 mi WSW 10.4 mph - N/A   Clear
4:55 AM 46.4 °F 41.5 °F 42.8 °F 87% 29.73 in 10.0 mi WSW 10.4 mph - N/A   Clear
5:15 AM 46.4 °F 41.1 °F 42.8 °F 87% 29.74 in 10.0 mi WSW 11.5 mph - N/A   Clear
5:35 AM 46.4 °F 41.1 °F 42.8 °F 87% 29.75 in 10.0 mi WSW 11.5 mph - N/A   Clear
5:55 AM 46.4 °F 41.1 °F 42.8 °F 87% 29.75 in 10.0 mi WSW 11.5 mph - N/A   Clear
6:15 AM 48.2 °F - 42.8 °F 82% 29.76 in 10.0 mi West 15.0 mph - N/A   Clear
6:35 AM 50.0 °F - 42.8 °F 76% 29.77 in 10.0 mi West 13.8 mph - N/A   Clear
6:55 AM 50.0 °F - 42.8 °F 76% 29.78 in 10.0 mi West 13.8 mph - N/A   Clear
7:15 AM 50.0 °F - 42.8 °F 76% 29.79 in 2.5 mi West 15.0 mph - N/A   Haze
7:35 AM 51.8 °F - 42.8 °F 71% 29.80 in 10.0 mi West 13.8 mph - N/A   Clear
7:55 AM 51.8 °F - 44.6 °F 76% 29.80 in 10.0 mi West 16.1 mph - N/A   Clear
8:15 AM 53.6 °F - 44.6 °F 72% 29.81 in 10.0 mi West 16.1 mph - N/A   Clear
8:35 AM 53.6 °F - 44.6 °F 72% 29.81 in 10.0 mi West 16.1 mph - N/A   Clear
8:55 AM 55.4 °F - 42.8 °F 63% 29.82 in 10.0 mi WNW 17.3 mph - N/A   Clear
9:15 AM 55.4 °F - 44.6 °F 67% 29.82 in 10.0 mi West 16.1 mph 20.7 mph N/A   Clear
9:35 AM 57.2 °F - 41.0 °F 55% 29.82 in 10.0 mi WNW 21.9 mph - N/A   Clear
9:55 AM 59.0 °F - 39.2 °F 48% 29.83 in 10.0 mi WNW 17.3 mph 26.5 mph N/A   Clear
10:15 AM 59.0 °F - 39.2 °F 48% 29.84 in 10.0 mi WNW 18.4 mph 23.0 mph N/A   Clear
10:35 AM 60.8 °F - 37.4 °F 42% 29.84 in 10.0 mi WNW 19.6 mph - N/A   Clear
10:55 AM 62.6 °F - 35.6 °F 37% 29.85 in 10.0 mi NW 15.0 mph 20.7 mph N/A   Clear
11:15 AM 62.6 °F - 33.8 °F 34% 29.85 in 10.0 mi WNW 18.4 mph 25.3 mph N/A   Clear
11:35 AM 64.4 °F - 35.6 °F 34% 29.86 in 10.0 mi WNW 18.4 mph 27.6 mph N/A   Clear
11:55 AM 64.4 °F - 33.8 °F 32% 29.86 in 10.0 mi WNW 23.0 mph 29.9 mph N/A   Clear
12:15 PM 64.4 °F - 33.8 °F 32% 29.86 in 10.0 mi WNW 21.9 mph 26.5 mph N/A   Clear
12:35 PM 66.2 °F - 30.2 °F 26% 29.86 in 10.0 mi West 18.4 mph 28.8 mph N/A   Clear
12:55 PM 66.2 °F - 30.2 °F 26% 29.86 in 10.0 mi WNW 21.9 mph 28.8 mph N/A   Clear
1:15 PM 68.0 °F - 33.8 °F 28% 29.86 in 10.0 mi WNW 23.0 mph 28.8 mph N/A   Clear
1:35 PM 68.0 °F - 33.8 °F 28% 29.86 in 10.0 mi West 17.3 mph 27.6 mph N/A   Clear
1:55 PM 69.8 °F - 33.8 °F 27% 29.86 in 10.0 mi WNW 20.7 mph 29.9 mph N/A   Clear
2:15 PM 69.8 °F - 33.8 °F 27% 29.86 in 10.0 mi West 21.9 mph 28.8 mph N/A   Clear
2:35 PM 69.8 °F - 33.8 °F 27% 29.86 in 10.0 mi West 18.4 mph 29.9 mph N/A   Clear
2:55 PM 69.8 °F - 33.8 °F 27% 29.85 in 10.0 mi West 8.1 mph 31.1 mph N/A   Scattered Clouds
3:15 PM 71.6 °F - 33.8 °F 25% 29.85 in 10.0 mi West 20.7 mph 29.9 mph N/A   Clear
3:35 PM 71.6 °F - 33.8 °F 25% 29.85 in 10.0 mi WNW 18.4 mph 31.1 mph N/A   Scattered Clouds
3:55 PM 71.6 °F - 33.8 °F 25% 29.85 in 10.0 mi West 21.9 mph 26.5 mph N/A   Scattered Clouds
4:15 PM 69.8 °F - 33.8 °F 27% 29.84 in 10.0 mi WNW 19.6 mph 25.3 mph N/A   Scattered Clouds
4:35 PM 69.8 °F - 35.6 °F 28% 29.84 in 10.0 mi West 20.7 mph 24.2 mph N/A   Scattered Clouds
4:55 PM 71.6 °F - 35.6 °F 27% 29.84 in 10.0 mi West 18.4 mph 26.5 mph N/A   Scattered Clouds
5:15 PM 71.6 °F - 33.8 °F 25% 29.84 in 10.0 mi West 19.6 mph 31.1 mph N/A   Scattered Clouds
5:35 PM 71.6 °F - 33.8 °F 25% 29.85 in 10.0 mi West 18.4 mph - N/A   Scattered Clouds
5:55 PM 71.6 °F - 33.8 °F 25% 29.85 in 10.0 mi West 21.9 mph 27.6 mph N/A   Scattered Clouds
6:15 PM 71.6 °F - 33.8 °F 25% 29.85 in 10.0 mi West 20.7 mph 28.8 mph N/A   Clear
6:35 PM 69.8 °F - 33.8 °F 27% 29.85 in 10.0 mi West 20.7 mph 24.2 mph N/A   Clear
6:55 PM 69.8 °F - 35.6 °F 28% 29.85 in 10.0 mi West 16.1 mph - N/A   Clear
7:15 PM 69.8 °F - 35.6 °F 28% 29.86 in 10.0 mi West 12.7 mph - N/A   Clear
7:35 PM 68.0 °F - 37.4 °F 33% 29.86 in 10.0 mi West 12.7 mph - N/A   Clear
7:55 PM 66.2 °F - 37.4 °F 35% 29.87 in 10.0 mi West 9.2 mph - N/A   Clear
8:15 PM 64.4 °F - 39.2 °F 40% 29.87 in 10.0 mi West 6.9 mph - N/A   Clear
8:35 PM 64.4 °F - 39.2 °F 40% 29.88 in 10.0 mi West 6.9 mph - N/A   Clear
8:55 PM 64.4 °F - 37.4 °F 37% 29.88 in 10.0 mi West 9.2 mph - N/A   Clear
9:15 PM 62.6 °F - 41.0 °F 45% 29.89 in 10.0 mi West 6.9 mph - N/A   Clear
9:35 PM 62.6 °F - 41.0 °F 45% 29.89 in 10.0 mi West 6.9 mph - N/A   Scattered Clouds
9:55 PM 60.8 °F - 42.8 °F 52% 29.90 in 10.0 mi WSW 6.9 mph - N/A   Clear
10:15 PM 60.8 °F - 42.8 °F 52% 29.89 in 10.0 mi WSW 5.8 mph - N/A   Clear
10:35 PM 60.8 °F - 42.8 °F 52% 29.90 in 10.0 mi WSW 8.1 mph - N/A   Clear
10:55 PM 60.8 °F - 41.0 °F 48% 29.91 in 10.0 mi West 13.8 mph - N/A   Scattered Clouds
11:15 PM 62.6 °F - 42.8 °F 48% 29.92 in 10.0 mi West 15.0 mph - N/A   Mostly Cloudy
11:35 PM 62.6 °F - 42.8 °F 48% - 10.0 mi West 12.7 mph - N/A   Overcast
11:55 PM 60.8 °F - 42.8 °F 52% 29.91 in 10.0 mi WNW 13.8 mph - N/A   Mostly Cloudy